Isle of Colonsay, United Kingdom
Current Conditions -  °F | °C
As of 5:20 PM on Tuesday 21 Oct 2014 (Local Time) from EGPI Reporting Station
Broken Clouds Broken Clouds  
Wind Chill: 39°   Ceiling: 4200
Heat Index: 48°   Visibility: 6mi
Dew Point: 39°   Wind: 31mph
Humidity: 71%   Direction: 310°NW
Pressure: 29.88"   Gusts: 44mph
Location:  56.07°N, 6.18°W
Report Text: EGPI 211620Z 31027G38KT 9999 FEW026 BKN042 09/04 Q1012
Loading
Personal Weather Stations






























Interactive Weather Map
Tropical Storm Tracking
New forecast layout! Learn more

10-Day Weather Forecast

Advertisements
Track Severe Weather on mobile